Observation data for Ralls on 02/11/2018      Previous  Date  Next       Current Mesonet Observations  Soil Data  Daily Summary Page  Observations in Plain Language
KRLS 110600Z 02013KT M07/M14 A3001 RMK A01 T10731139  RH  060%=      5-min Rain = 0
KRLS 110605Z 02013KT M07/M14 A3001 RMK A01 T10731139  RH  060%=      5-min Rain = 0
KRLS 110610Z 02013KT M07/M14 A3002 RMK A01 T10731139  RH  060%=      5-min Rain = 0
KRLS 110615Z 02012KT M07/M14 A3002 RMK A01 T10741139  RH  060%=      5-min Rain = 0
KRLS 110620Z 02012G17KT M07/M14 A3001 RMK A01 T10741139  RH  061%=      5-min Rain = 0
KRLS 110625Z 02012KT M07/M14 A3001 RMK A01 T10741139  RH  061%=      5-min Rain = 0
KRLS 110630Z 02014KT M07/M14 A3001 RMK A01 T10741138  RH  061%=      5-min Rain = 0
KRLS 110635Z 02012KT M07/M14 A3002 RMK A01 T10741138  RH  061%=      5-min Rain = 0
KRLS 110640Z 02013KT M07/M14 A3002 RMK A01 T10741138  RH  061%=      5-min Rain = 0
KRLS 110645Z 02013KT M07/M14 A3001 RMK A01 T10741139  RH  061%=      5-min Rain = 0
KRLS 110650Z 01012KT M08/M14 A3001 RMK A01 T10751139  RH  061%=      5-min Rain = 0
KRLS 110655Z 01011KT M08/M14 A3001 RMK A01 T10751139  RH  061%=      5-min Rain = 0
KRLS 110700Z 01012KT M08/M14 A3001 RMK A01 T10751139  RH  061%=      5-min Rain = 0
KRLS 110705Z 01010KT M08/M14 A3002 RMK A01 T10751139  RH  061%=      5-min Rain = 0
KRLS 110710Z 01010KT M08/M14 A3001 RMK A01 T10751139  RH  061%=      5-min Rain = 0
KRLS 110715Z 01012KT M08/M14 A3002 RMK A01 T10751139  RH  061%=      5-min Rain = 0
KRLS 110720Z 01011G17KT M08/M14 A3002 RMK A01 T10751139  RH  061%=      5-min Rain = 0
KRLS 110725Z 01011G16KT M07/M14 A3002 RMK A01 T10731138  RH  061%=      5-min Rain = 0
KRLS 110730Z 01013G18KT M07/M14 A3002 RMK A01 T10731139  RH  060%=      5-min Rain = 0
KRLS 110735Z 01013G18KT M07/M14 A3002 RMK A01 T10731139  RH  060%=      5-min Rain = 0
KRLS 110740Z 01013KT M07/M14 A3002 RMK A01 T10721140  RH  059%=      5-min Rain = 0
KRLS 110745Z 01013KT M07/M14 A3002 RMK A01 T10721140  RH  059%=      5-min Rain = 0
KRLS 110750Z 00013G18KT M07/M14 A3003 RMK A01 T10721140  RH  059%=      5-min Rain = 0
KRLS 110755Z 01015G21KT M07/M14 A3003 RMK A01 T10731141  RH  059%=      5-min Rain = 0
KRLS 110800Z 01013G19KT M07/M14 A3003 RMK A01 T10731142  RH  059%=      5-min Rain = 0
KRLS 110805Z 01015G20KT M07/M14 A3004 RMK A01 T10741142  RH  059%=      5-min Rain = 0
KRLS 110810Z 02018KT M07/M14 A3003 RMK A01 T10741143  RH  059%=      5-min Rain = 0
KRLS 110815Z 01015G21KT M08/M14 A3003 RMK A01 T10771144  RH  059%=      5-min Rain = 0
KRLS 110820Z 01011G16KT M08/M15 A3004 RMK A01 T10791145  RH  060%=      5-min Rain = 0
KRLS 110825Z 00013G18KT M08/M15 A3004 RMK A01 T10801145  RH  060%=      5-min Rain = 0
KRLS 110830Z 00014G19KT M08/M14 A3004 RMK A01 T10781144  RH  060%=      5-min Rain = 0
KRLS 110835Z 01014G19KT M08/M14 A3004 RMK A01 T10761144  RH  059%=      5-min Rain = 0
KRLS 110840Z 00013G18KT M08/M14 A3004 RMK A01 T10761144  RH  059%=      5-min Rain = 0
KRLS 110845Z 01014G19KT M08/M14 A3004 RMK A01 T10761144  RH  059%=      5-min Rain = 0
KRLS 110850Z 00014G19KT M08/M15 A3004 RMK A01 T10751145  RH  058%=      5-min Rain = 0
KRLS 110855Z 00014KT M08/M15 A3004 RMK A01 T10751145  RH  058%=      5-min Rain = 0
KRLS 110900Z 01014G19KT M08/M15 A3004 RMK A01 T10751145  RH  058%=      5-min Rain = 0
KRLS 110905Z 00016G21KT M08/M15 A3005 RMK A01 T10761146  RH  058%=      5-min Rain = 0
KRLS 110910Z 00014KT M08/M15 A3005 RMK A01 T10761146  RH  058%=      5-min Rain = 0
KRLS 110915Z 00014G20KT M08/M15 A3005 RMK A01 T10771147  RH  058%=      5-min Rain = 0
KRLS 110920Z 00012G17KT M08/M15 A3005 RMK A01 T10761147  RH  058%=      5-min Rain = 0
KRLS 110925Z 36013KT M08/M15 A3005 RMK A01 T10761147  RH  058%=      5-min Rain = 0
KRLS 110930Z 36014KT M08/M15 A3005 RMK A01 T10771148  RH  058%=      5-min Rain = 0
KRLS 110935Z 00015G21KT M08/M15 A3005 RMK A01 T10781148  RH  058%=      5-min Rain = 0
KRLS 110940Z 00012G17KT M08/M15 A3005 RMK A01 T10771147  RH  058%=      5-min Rain = 0
KRLS 110945Z 36012KT M08/M15 A3005 RMK A01 T10761148  RH  057%=      5-min Rain = 0
KRLS 110950Z 01013G18KT M08/M15 A3005 RMK A01 T10771148  RH  057%=      5-min Rain = 0
KRLS 110955Z 36012G17KT M08/M15 A3005 RMK A01 T10761148  RH  057%=      5-min Rain = 0
KRLS 111000Z 00013KT M08/M15 A3005 RMK A01 T10761148  RH  057%=      5-min Rain = 0
KRLS 111005Z 00012G17KT M08/M15 A3005 RMK A01 T10761148  RH  057%=      5-min Rain = 0
KRLS 111010Z 00012KT M08/M15 A3005 RMK A01 T10751148  RH  057%=      5-min Rain = 0
KRLS 111015Z 01013G19KT M08/M15 A3006 RMK A01 T10761148  RH  057%=      5-min Rain = 0
KRLS 111020Z 01015KT M08/M15 A3005 RMK A01 T10771148  RH  057%=      5-min Rain = 0
KRLS 111025Z 36014KT M08/M15 A3006 RMK A01 T10771148  RH  058%=      5-min Rain = 0
KRLS 111030Z 00013KT M08/M15 A3006 RMK A01 T10761148  RH  057%=      5-min Rain = 0
KRLS 111035Z 36008KT M08/M15 A3006 RMK A01 T10761148  RH  057%=      5-min Rain = 0
KRLS 111040Z 36010G16KT M08/M15 A3006 RMK A01 T10761148  RH  057%=      5-min Rain = 0
KRLS 111045Z 00012G17KT M08/M15 A3006 RMK A01 T10771149  RH  057%=      5-min Rain = 0
KRLS 111050Z 01012KT M08/M15 A3006 RMK A01 T10781149  RH  058%=      5-min Rain = 0
KRLS 111055Z 01011KT M08/M15 A3007 RMK A01 T10791149  RH  058%=      5-min Rain = 0
KRLS 111100Z 00012KT M08/M15 A3007 RMK A01 T10791149  RH  058%=      5-min Rain = 0
KRLS 111105Z 00012G17KT M08/M15 A3007 RMK A01 T10801149  RH  058%=      5-min Rain = 0
KRLS 111110Z 00012G17KT M08/M15 A3008 RMK A01 T10821150  RH  059%=      5-min Rain = 0
KRLS 111115Z 36011KT M08/M15 A3008 RMK A01 T10831150  RH  060%=      5-min Rain = 0
KRLS 111120Z 36011KT M08/M15 A3008 RMK A01 T10841150  RH  060%=      5-min Rain = 0
KRLS 111125Z 36011G16KT M09/M15 A3008 RMK A01 T10851150  RH  060%=      5-min Rain = 0
KRLS 111130Z 35010KT M09/M15 A3008 RMK A01 T10861151  RH  060%=      5-min Rain = 0
KRLS 111135Z 35009KT M09/M15 A3009 RMK A01 T10871151  RH  061%=      5-min Rain = 0
KRLS 111140Z 35009KT M09/M15 A3009 RMK A01 T10881152  RH  061%=      5-min Rain = 0
KRLS 111145Z 35009KT M09/M15 A3009 RMK A01 T10881152  RH  061%=      5-min Rain = 0
KRLS 111150Z 35009KT M09/M15 A301 RMK A01 T10891152  RH  061%=      5-min Rain = 0
KRLS 111155Z 35010KT M09/M15 A301 RMK A01 T10891152  RH  061%=      5-min Rain = 0
KRLS 111200Z 35009KT M09/M15 A301 RMK A01 T10891152  RH  061%=      5-min Rain = 0
KRLS 111205Z 35009KT M09/M15 A301 RMK A01 T10891152  RH  061%=      5-min Rain = 0
KRLS 111210Z 35008KT M09/M15 A301 RMK A01 T10891152  RH  061%=      5-min Rain = 0
KRLS 111215Z 34007KT M09/M15 A3011 RMK A01 T10891152  RH  061%=      5-min Rain = 0
KRLS 111220Z 34008KT M09/M15 A3011 RMK A01 T10911153  RH  061%=      5-min Rain = 0
KRLS 111225Z 35008KT M09/M15 A3011 RMK A01 T10911153  RH  062%=      5-min Rain = 0
KRLS 111230Z 34007KT M09/M15 A3011 RMK A01 T10911153  RH  062%=      5-min Rain = 0
KRLS 111235Z 34007KT M09/M15 A3011 RMK A01 T10921154  RH  062%=      5-min Rain = 0
KRLS 111240Z 34007KT M09/M15 A3011 RMK A01 T10911153  RH  062%=      5-min Rain = 0
KRLS 111245Z 34007KT M09/M15 A3012 RMK A01 T10911153  RH  062%=      5-min Rain = 0
KRLS 111250Z 34007KT M09/M15 A3012 RMK A01 T10901152  RH  062%=      5-min Rain = 0
KRLS 111255Z 34007KT M09/M15 A3012 RMK A01 T10911152  RH  062%=      5-min Rain = 0
KRLS 111300Z 33008KT M09/M15 A3013 RMK A01 T10901151  RH  062%=      5-min Rain = 0
KRLS 111305Z 34009KT M09/M15 A3013 RMK A01 T10891151  RH  062%=      5-min Rain = 0
KRLS 111310Z 34009KT M09/M15 A3014 RMK A01 T10901151  RH  062%=      5-min Rain = 0
KRLS 111315Z 33008KT M09/M15 A3014 RMK A01 T10901151  RH  062%=      5-min Rain = 0
KRLS 111320Z 33008KT M09/M15 A3015 RMK A01 T10891150  RH  062%=      5-min Rain = 0
KRLS 111325Z 34008KT M09/M15 A3015 RMK A01 T10881150  RH  062%=      5-min Rain = 0
KRLS 111330Z 33008KT M09/M15 A3015 RMK A01 T10881150  RH  062%=      5-min Rain = 0
KRLS 111335Z 33007KT M09/M15 A3015 RMK A01 T10881151  RH  061%=      5-min Rain = 0
KRLS 111340Z 33006KT M09/M15 A3016 RMK A01 T10881151  RH  062%=      5-min Rain = 0
KRLS 111345Z 33006KT M09/M15 A3016 RMK A01 T10891151  RH  062%=      5-min Rain = 0
KRLS 111350Z 33006KT M09/M15 A3016 RMK A01 T10881150  RH  062%=      5-min Rain = 0
KRLS 111355Z 33005KT M09/M15 A3016 RMK A01 T10861149  RH  062%=      5-min Rain = 0
KRLS 111400Z 33005KT M08/M15 A3017 RMK A01 T10841148  RH  061%=      5-min Rain = 0
KRLS 111405Z 32005KT M08/M15 A3017 RMK A01 T10831148  RH  060%=      5-min Rain = 0
KRLS 111410Z 33006KT M08/M15 A3017 RMK A01 T10801147  RH  059%=      5-min Rain = 0
KRLS 111415Z 33007KT M08/M15 A3017 RMK A01 T10761146  RH  058%=      5-min Rain = 0
KRLS 111420Z 33008KT M07/M15 A3018 RMK A01 T10731145  RH  057%=      5-min Rain = 0
KRLS 111425Z 33008KT M07/M14 A3018 RMK A01 T10681143  RH  056%=      5-min Rain = 0
KRLS 111430Z 33011KT M06/M14 A3019 RMK A01 T10631142  RH  054%=      5-min Rain = 0
KRLS 111435Z 34011KT M06/M14 A3018 RMK A01 T10611142  RH  053%=      5-min Rain = 0
KRLS 111440Z 34010KT M06/M14 A3018 RMK A01 T10591143  RH  053%=      5-min Rain = 0
KRLS 111445Z 35010KT M06/M14 A3018 RMK A01 T10581143  RH  052%=      5-min Rain = 0
KRLS 111450Z 35011G16KT M05/M14 A3019 RMK A01 T10541140  RH  051%=      5-min Rain = 0
KRLS 111455Z 35012KT M05/M14 A3019 RMK A01 T10531141  RH  051%=      5-min Rain = 0
KRLS 111500Z 35011KT M06/M14 A302 RMK A01 T10551142  RH  051%=      5-min Rain = 0
KRLS 111505Z 35011G16KT M05/M14 A3019 RMK A01 T10541141  RH  051%=      5-min Rain = 0
KRLS 111510Z 35013KT M05/M14 A302 RMK A01 T10521141  RH  051%=      5-min Rain = 0
KRLS 111515Z 36014KT M05/M14 A302 RMK A01 T10511140  RH  050%=      5-min Rain = 0
KRLS 111520Z 36014KT M05/M14 A302 RMK A01 T10501139  RH  050%=      5-min Rain = 0
KRLS 111525Z 36012KT M05/M14 A302 RMK A01 T10471138  RH  050%=      5-min Rain = 0
KRLS 111530Z 35014G19KT M05/M14 A3021 RMK A01 T10451138  RH  049%=      5-min Rain = 0
KRLS 111535Z 36012KT M05/M14 A302 RMK A01 T10461137  RH  050%=      5-min Rain = 0
KRLS 111540Z 36013G18KT M05/M14 A302 RMK A01 T10461137  RH  050%=      5-min Rain = 0
KRLS 111545Z 00013KT M04/M14 A3021 RMK A01 T10441136  RH  050%=      5-min Rain = 0
KRLS 111550Z 35011KT M04/M14 A3021 RMK A01 T10401135  RH  049%=      5-min Rain = 0
KRLS 111555Z 34010G15KT M04/M13 A3021 RMK A01 T10401134  RH  048%=      5-min Rain = 0
KRLS 111600Z 36012KT M04/M14 A3021 RMK A01 T10411135  RH  048%=      5-min Rain = 0
KRLS 111605Z 36013KT M04/M13 A3021 RMK A01 T10401134  RH  049%=      5-min Rain = 0
KRLS 111610Z 36012KT M04/M14 A3021 RMK A01 T10411135  RH  049%=      5-min Rain = 0
KRLS 111615Z 35012KT M04/M14 A302 RMK A01 T10411135  RH  049%=      5-min Rain = 0
KRLS 111620Z 35011KT M04/M13 A302 RMK A01 T10391134  RH  048%=      5-min Rain = 0
KRLS 111625Z 36011G16KT M04/M13 A3021 RMK A01 T10371133  RH  048%=      5-min Rain = 0
KRLS 111630Z 36012KT M04/M13 A3021 RMK A01 T10381134  RH  048%=      5-min Rain = 0
KRLS 111635Z 36012KT M04/M13 A3021 RMK A01 T10381133  RH  048%=      5-min Rain = 0
KRLS 111640Z 35010KT M04/M13 A3022 RMK A01 T10351131  RH  048%=      5-min Rain = 0
KRLS 111645Z 36012KT M03/M13 A3022 RMK A01 T10321132  RH  047%=      5-min Rain = 0
KRLS 111650Z 35013KT M03/M13 A3022 RMK A01 T10321132  RH  047%=      5-min Rain = 0
KRLS 111655Z 35012KT M03/M13 A3022 RMK A01 T10321132  RH  047%=      5-min Rain = 0
KRLS 111700Z 35012G19KT M03/M13 A3022 RMK A01 T10271131  RH  045%=      5-min Rain = 0
KRLS 111705Z 34010G15KT M02/M13 A3022 RMK A01 T10231129  RH  045%=      5-min Rain = 0
KRLS 111710Z 35011KT M02/M13 A3022 RMK A01 T10201128  RH  044%=      5-min Rain = 0
KRLS 111715Z 35010KT M02/M13 A3022 RMK A01 T10191130  RH  043%=      5-min Rain = 0
KRLS 111720Z 35010KT M02/M13 A3022 RMK A01 T10161129  RH  042%=      5-min Rain = 0
KRLS 111725Z 00010KT M01/M13 A3022 RMK A01 T10051126  RH  040%=      5-min Rain = 0
KRLS 111730Z 36010G17KT M00/M13 A3022 RMK A01 T10041129  RH  039%=      5-min Rain = 0
KRLS 111735Z 36011KT M01/M13 A3022 RMK A01 T10061129  RH  039%=      5-min Rain = 0
KRLS 111740Z 36010KT M01/M13 A3022 RMK A01 T10061129  RH  039%=      5-min Rain = 0
KRLS 111745Z 36012KT M01/M13 A3022 RMK A01 T10081130  RH  040%=      5-min Rain = 0
KRLS 111750Z 36010G16KT M01/M13 A3021 RMK A01 T10061130  RH  039%=      5-min Rain = 0
KRLS 111755Z 36013KT M01/M13 A3021 RMK A01 T10061130  RH  039%=      5-min Rain = 0
KRLS 111800Z 35010KT M01/M13 A3021 RMK A01 T10051130  RH  039%=      5-min Rain = 0
KRLS 111805Z 35012KT M01/M13 A3021 RMK A01 T10081132  RH  039%=      5-min Rain = 0
KRLS 111810Z 34011KT M01/M13 A3021 RMK A01 T10071130  RH  039%=      5-min Rain = 0
KRLS 111815Z 35010KT M00/M13 A3021 RMK A01 T10011129  RH  038%=      5-min Rain = 0
KRLS 111820Z 35010KT 00/M13 A3021 RMK A01 T00021128  RH  037%=      5-min Rain = 0
KRLS 111825Z 00012KT 01/M13 A3021 RMK A01 T00051128  RH  037%=      5-min Rain = 0
KRLS 111830Z 35010G15KT 01/M13 A3021 RMK A01 T00071127  RH  036%=      5-min Rain = 0
KRLS 111835Z 36011KT 01/M13 A3021 RMK A01 T00071128  RH  036%=      5-min Rain = 0
KRLS 111840Z 36010KT 01/M13 A3021 RMK A01 T00071127  RH  036%=      5-min Rain = 0
KRLS 111845Z 01010G15KT 01/M13 A302 RMK A01 T00131126  RH  035%=      5-min Rain = 0
KRLS 111850Z 35009KT 01/M13 A302 RMK A01 T00141126  RH  035%=      5-min Rain = 0
KRLS 111855Z 00010KT 02/M13 A3019 RMK A01 T00151125  RH  035%=      5-min Rain = 0
KRLS 111900Z 01010KT 02/M13 A3019 RMK A01 T00171125  RH  034%=      5-min Rain = 0
KRLS 111905Z 36011G16KT 02/M13 A3019 RMK A01 T00181125  RH  034%=      5-min Rain = 0
KRLS 111910Z 36008G13KT 02/M12 A3018 RMK A01 T00221124  RH  034%=      5-min Rain = 0
KRLS 111915Z 35010KT 02/M13 A3018 RMK A01 T00231125  RH  033%=      5-min Rain = 0
KRLS 111920Z 01009KT 03/M12 A3017 RMK A01 T00271124  RH  033%=      5-min Rain = 0
KRLS 111925Z 01009G15KT 03/M12 A3017 RMK A01 T00281123  RH  032%=      5-min Rain = 0
KRLS 111930Z 02006G11KT 03/M12 A3017 RMK A01 T00321123  RH  032%=      5-min Rain = 0
KRLS 111935Z 35011KT 03/M12 A3017 RMK A01 T00321123  RH  031%=      5-min Rain = 0
KRLS 111940Z 34009KT 04/M12 A3016 RMK A01 T00371123  RH  031%=      5-min Rain = 0
KRLS 111945Z 35008KT 04/M12 A3016 RMK A01 T00381123  RH  030%=      5-min Rain = 0
KRLS 111950Z 36008G13KT 04/M12 A3015 RMK A01 T00371124  RH  030%=      5-min Rain = 0
KRLS 111955Z 35007G13KT 04/M12 A3015 RMK A01 T00371122  RH  031%=      5-min Rain = 0
KRLS 112000Z 01008G13KT 04/M13 A3015 RMK A01 T00431126  RH  028%=      5-min Rain = 0
KRLS 112005Z 00007KT 04/M12 A3014 RMK A01 T00421124  RH  029%=      5-min Rain = 0
KRLS 112010Z 03006KT 04/M13 A3014 RMK A01 T00431126  RH  029%=      5-min Rain = 0
KRLS 112015Z 36007KT 05/M12 A3014 RMK A01 T00481123  RH  028%=      5-min Rain = 0
KRLS 112020Z 03008KT 05/M13 A3014 RMK A01 T00501126  RH  027%=      5-min Rain = 0
KRLS 112025Z 03009KT 05/M13 A3014 RMK A01 T00531129  RH  026%=      5-min Rain = 0
KRLS 112030Z 02009G14KT 05/M13 A3014 RMK A01 T00491132  RH  026%=      5-min Rain = 0
KRLS 112035Z 03005KT 05/M13 A3014 RMK A01 T00501134  RH  025%=      5-min Rain = 0
KRLS 112040Z 05008KT 05/M13 A3014 RMK A01 T00531132  RH  025%=      5-min Rain = 0
KRLS 112045Z 05007KT 05/M13 A3014 RMK A01 T00531133  RH  025%=      5-min Rain = 0
KRLS 112050Z 02007KT 06/M13 A3014 RMK A01 T00561133  RH  025%=      5-min Rain = 0
KRLS 112055Z 02008KT 06/M14 A3014 RMK A01 T00551138  RH  024%=      5-min Rain = 0
KRLS 112100Z 03007G12KT 06/M14 A3014 RMK A01 T00551137  RH  024%=      5-min Rain = 0
KRLS 112105Z 04008KT 06/M14 A3013 RMK A01 T00571135  RH  024%=      5-min Rain = 0
KRLS 112110Z 05004KT 06/M14 A3013 RMK A01 T00551136  RH  024%=      5-min Rain = 0
KRLS 112115Z 02006G12KT 06/M14 A3013 RMK A01 T00581138  RH  023%=      5-min Rain = 0
KRLS 112120Z 01005KT 06/M14 A3014 RMK A01 T00601139  RH  023%=      5-min Rain = 0
KRLS 112125Z 35007KT 06/M14 A3013 RMK A01 T00591140  RH  023%=      5-min Rain = 0
KRLS 112130Z 36005KT 06/M14 A3013 RMK A01 T00601139  RH  023%=      5-min Rain = 0
KRLS 112135Z 03004KT 06/M14 A3013 RMK A01 T00591138  RH  023%=      5-min Rain = 0
KRLS 112140Z 07003KT 06/M14 A3013 RMK A01 T00621137  RH  023%=      5-min Rain = 0
KRLS 112145Z 00005KT 06/M14 A3013 RMK A01 T00631139  RH  022%=      5-min Rain = 0
KRLS 112150Z 35004KT 06/M14 A3013 RMK A01 T00611139  RH  023%=      5-min Rain = 0
KRLS 112155Z 04004KT 06/M14 A3013 RMK A01 T00631141  RH  022%=      5-min Rain = 0
KRLS 112200Z 04002KT 06/M14 A3014 RMK A01 T00641141  RH  022%=      5-min Rain = 0
KRLS 112205Z 06004KT 06/M14 A3014 RMK A01 T00631141  RH  022%=      5-min Rain = 0
KRLS 112210Z 09004KT 07/M14 A3014 RMK A01 T00651140  RH  022%=      5-min Rain = 0
KRLS 112215Z 10002KT 07/M14 A3014 RMK A01 T00651141  RH  022%=      5-min Rain = 0
KRLS 112220Z 23002KT 07/M14 A3014 RMK A01 T00671142  RH  021%=      5-min Rain = 0
KRLS 112225Z 16001KT 07/M14 A3014 RMK A01 T00651142  RH  021%=      5-min Rain = 0
KRLS 112230Z 35003KT 07/M14 A3014 RMK A01 T00671143  RH  021%=      5-min Rain = 0
KRLS 112235Z 09002KT 07/M14 A3014 RMK A01 T00671144  RH  021%=      5-min Rain = 0
KRLS 112240Z 11004KT 07/M14 A3014 RMK A01 T00671144  RH  021%=      5-min Rain = 0
KRLS 112245Z 06003KT 07/M15 A3014 RMK A01 T00691146  RH  020%=      5-min Rain = 0
KRLS 112250Z 03005KT 07/M15 A3014 RMK A01 T00661149  RH  020%=      5-min Rain = 0
KRLS 112255Z 05003KT 07/M15 A3014 RMK A01 T00651148  RH  020%=      5-min Rain = 0
KRLS 112300Z 09004KT 06/M15 A3014 RMK A01 T00631150  RH  020%=      5-min Rain = 0
KRLS 112305Z 09002KT 06/M15 A3015 RMK A01 T00581150  RH  021%=      5-min Rain = 0
KRLS 112310Z 10002KT 06/M15 A3015 RMK A01 T00581150  RH  021%=      5-min Rain = 0
KRLS 112315Z 15000KT 06/M15 A3015 RMK A01 T00591149  RH  021%=      5-min Rain = 0
KRLS 112320Z 10004KT 06/M15 A3015 RMK A01 T00571151  RH  021%=      5-min Rain = 0
KRLS 112325Z 08003KT 06/M15 A3015 RMK A01 T00561151  RH  021%=      5-min Rain = 0
KRLS 112330Z 09002KT 06/M15 A3015 RMK A01 T00591150  RH  021%=      5-min Rain = 0
KRLS 112335Z 10001KT 06/M15 A3016 RMK A01 T00611150  RH  021%=      5-min Rain = 0
KRLS 112340Z 09001KT 07/M15 A3016 RMK A01 T00661151  RH  020%=      5-min Rain = 0
KRLS 112345Z 14002KT 06/M15 A3016 RMK A01 T00611153  RH  020%=      5-min Rain = 0
KRLS 112350Z 14002KT 06/M16 A3016 RMK A01 T00561155  RH  021%=      5-min Rain = 0
KRLS 112355Z 14001KT 06/M15 A3016 RMK A01 T00551154  RH  021%=      5-min Rain = 0
KRLS 120000Z 08003KT 05/M16 A3016 RMK A01 T00541157  RH  021%=      5-min Rain = 0
KRLS 120005Z 09003KT 05/M16 A3016 RMK A01 T00501159  RH  021%=      5-min Rain = 0
KRLS 120010Z 09003KT 05/M16 A3016 RMK A01 T00481161  RH  021%=      5-min Rain = 0
KRLS 120015Z 11003KT 05/M16 A3016 RMK A01 T00451164  RH  021%=      5-min Rain = 0
KRLS 120020Z 12004KT 04/M16 A3016 RMK A01 T00431163  RH  021%=      5-min Rain = 0
KRLS 120025Z 12006KT 04/M17 A3017 RMK A01 T00391169  RH  021%=      5-min Rain = 0
KRLS 120030Z 12005KT 04/M17 A3017 RMK A01 T00351169  RH  021%=      5-min Rain = 0
KRLS 120035Z 12006KT 03/M17 A3017 RMK A01 T00311171  RH  021%=      5-min Rain = 0
KRLS 120040Z 12006KT 03/M17 A3017 RMK A01 T00291172  RH  022%=      5-min Rain = 0
KRLS 120045Z 12005KT 03/M17 A3017 RMK A01 T00261174  RH  022%=      5-min Rain = 0
KRLS 120050Z 12008KT 02/M17 A3017 RMK A01 T00221173  RH  023%=      5-min Rain = 0
KRLS 120055Z 13008KT 02/M17 A3018 RMK A01 T00151171  RH  024%=      5-min Rain = 0
KRLS 120100Z 14008KT 01/M17 A3018 RMK A01 T00111168  RH  025%=      5-min Rain = 0
KRLS 120105Z 14008KT 01/M17 A3018 RMK A01 T00061166  RH  027%=      5-min Rain = 0
KRLS 120110Z 14008KT 00/M16 A3018 RMK A01 T00041164  RH  028%=      5-min Rain = 0
KRLS 120115Z 13008KT 00/M17 A3018 RMK A01 T00011166  RH  028%=      5-min Rain = 0
KRLS 120120Z 13007KT M00/M17 A3018 RMK A01 T10041170  RH  028%=      5-min Rain = 0
KRLS 120125Z 13007KT M01/M17 A3018 RMK A01 T10051171  RH  028%=      5-min Rain = 0
KRLS 120130Z 13007KT M01/M18 A3019 RMK A01 T10091175  RH  028%=      5-min Rain = 0
KRLS 120135Z 14007KT M02/M18 A3019 RMK A01 T10161175  RH  029%=      5-min Rain = 0
KRLS 120140Z 13007KT M02/M17 A3019 RMK A01 T10181172  RH  030%=      5-min Rain = 0
KRLS 120145Z 13007KT M02/M17 A3019 RMK A01 T10171172  RH  030%=      5-min Rain = 0
KRLS 120150Z 13007KT M02/M17 A3019 RMK A01 T10171174  RH  030%=      5-min Rain = 0
KRLS 120155Z 13007KT M02/M18 A3019 RMK A01 T10181175  RH  030%=      5-min Rain = 0
KRLS 120200Z 14007KT M02/M18 A3019 RMK A01 T10201178  RH  029%=      5-min Rain = 0
KRLS 120205Z 14008KT M02/M18 A302 RMK A01 T10231175  RH  031%=      5-min Rain = 0
KRLS 120210Z 13008KT M02/M17 A302 RMK A01 T10221174  RH  031%=      5-min Rain = 0
KRLS 120215Z 12008KT M02/M18 A302 RMK A01 T10231175  RH  031%=      5-min Rain = 0
KRLS 120220Z 13008KT M02/M18 A302 RMK A01 T10231176  RH  030%=      5-min Rain = 0
KRLS 120225Z 12007KT M02/M18 A302 RMK A01 T10241178  RH  030%=      5-min Rain = 0
KRLS 120230Z 12007KT M03/M19 A302 RMK A01 T10301186  RH  030%=      5-min Rain = 0
KRLS 120235Z 12007KT M04/M19 A302 RMK A01 T10351189  RH  030%=      5-min Rain = 0
KRLS 120240Z 12007KT M04/M19 A302 RMK A01 T10381190  RH  030%=      5-min Rain = 0
KRLS 120245Z 12007KT M04/M19 A302 RMK A01 T10391189  RH  031%=      5-min Rain = 0
KRLS 120250Z 13008KT M04/M18 A3021 RMK A01 T10351180  RH  032%=      5-min Rain = 0
KRLS 120255Z 13008KT M03/M18 A3021 RMK A01 T10321177  RH  032%=      5-min Rain = 0
KRLS 120300Z 14008KT M04/M18 A3021 RMK A01 T10351180  RH  032%=      5-min Rain = 0
KRLS 120305Z 14007KT M04/M18 A3021 RMK A01 T10371181  RH  032%=      5-min Rain = 0
KRLS 120310Z 14008KT M04/M18 A3021 RMK A01 T10401181  RH  033%=      5-min Rain = 0
KRLS 120315Z 15007KT M04/M18 A3022 RMK A01 T10441183  RH  034%=      5-min Rain = 0
KRLS 120320Z 15007KT M05/M18 A3022 RMK A01 T10481181  RH  035%=      5-min Rain = 0
KRLS 120325Z 15006KT M05/M18 A3022 RMK A01 T10491183  RH  035%=      5-min Rain = 0
KRLS 120330Z 15006KT M05/M19 A3022 RMK A01 T10521188  RH  034%=      5-min Rain = 0
KRLS 120335Z 15006KT M05/M19 A3022 RMK A01 T10531190  RH  034%=      5-min Rain = 0
KRLS 120340Z 15005KT M05/M19 A3022 RMK A01 T10541192  RH  034%=      5-min Rain = 0
KRLS 120345Z 15005KT M06/M19 A3023 RMK A01 T10561193  RH  034%=      5-min Rain = 0
KRLS 120350Z 15005KT M06/M19 A3023 RMK A01 T10601190  RH  036%=      5-min Rain = 0
KRLS 120355Z 15005KT M06/M19 A3023 RMK A01 T10611189  RH  036%=      5-min Rain = 0
KRLS 120400Z 16004KT M06/M19 A3023 RMK A01 T10621189  RH  037%=      5-min Rain = 0
KRLS 120405Z 16006KT M06/M18 A3023 RMK A01 T10611183  RH  038%=      5-min Rain = 0
KRLS 120410Z 16006KT M06/M18 A3023 RMK A01 T10581182  RH  038%=      5-min Rain = 0
KRLS 120415Z 15007KT M06/M18 A3023 RMK A01 T10551179  RH  038%=      5-min Rain = 0
KRLS 120420Z 15008KT M05/M18 A3023 RMK A01 T10541184  RH  036%=      5-min Rain = 0
KRLS 120425Z 15008KT M06/M19 A3023 RMK A01 T10551185  RH  036%=      5-min Rain = 0
KRLS 120430Z 14007KT M06/M19 A3023 RMK A01 T10561188  RH  035%=      5-min Rain = 0
KRLS 120435Z 15006KT M06/M20 A3023 RMK A01 T10621196  RH  035%=      5-min Rain = 0
KRLS 120440Z 15007KT M06/M19 A3023 RMK A01 T10601192  RH  035%=      5-min Rain = 0
KRLS 120445Z 15007KT M06/M19 A3023 RMK A01 T10601191  RH  036%=      5-min Rain = 0
KRLS 120450Z 15007KT M06/M19 A3023 RMK A01 T10611190  RH  036%=      5-min Rain = 0
KRLS 120455Z 16006KT M07/M19 A3023 RMK A01 T10721189  RH  039%=      5-min Rain = 0
KRLS 120500Z 15007KT M07/M18 A3024 RMK A01 T10671180  RH  041%=      5-min Rain = 0
KRLS 120505Z 16007KT M06/M18 A3024 RMK A01 T10621182  RH  039%=      5-min Rain = 0
KRLS 120510Z 15007KT M06/M18 A3024 RMK A01 T10611182  RH  039%=      5-min Rain = 0
KRLS 120515Z 15007KT M06/M18 A3024 RMK A01 T10591181  RH  038%=      5-min Rain = 0
KRLS 120520Z 15007KT M06/M18 A3024 RMK A01 T10611182  RH  038%=      5-min Rain = 0
KRLS 120525Z 15007KT M06/M18 A3023 RMK A01 T10641184  RH  039%=      5-min Rain = 0
KRLS 120530Z 15008KT M06/M18 A3023 RMK A01 T10641183  RH  039%=      5-min Rain = 0
KRLS 120535Z 15008KT M07/M18 A3023 RMK A01 T10651182  RH  040%=      5-min Rain = 0
KRLS 120540Z 15009KT M06/M18 A3023 RMK A01 T10641181  RH  040%=      5-min Rain = 0
KRLS 120545Z 14008KT M06/M18 A3024 RMK A01 T10631184  RH  038%=      5-min Rain = 0
KRLS 120550Z 14008KT M06/M18 A3023 RMK A01 T10611182  RH  038%=      5-min Rain = 0
KRLS 120555Z 14006KT M07/M20 A3024 RMK A01 T10671195  RH  036%=      5-min Rain = 0

Page generated in 0.0162 seconds.